sensor_id;sensor_type;location;lat;lon;timestamp;P1;durP1;ratioP1;P2;durP2;ratioP2
77012;SDS011;67260;53.130;17.982;2023-12-29T00:12:11;9.80;;;4.60;;
77012;SDS011;67260;53.130;17.982;2023-12-29T00:32:28;10.00;;;4.70;;
77012;SDS011;67260;53.130;17.982;2023-12-29T00:35:17;8.60;;;4.60;;
77012;SDS011;67260;53.130;17.982;2023-12-29T00:46:35;14.80;;;4.90;;
77012;SDS011;67260;53.130;17.982;2023-12-29T00:49:41;11.00;;;5.20;;
77012;SDS011;67260;53.130;17.982;2023-12-29T00:58:42;10.00;;;4.20;;
77012;SDS011;67260;53.130;17.982;2023-12-29T01:03:40;9.80;;;4.20;;
77012;SDS011;67260;53.130;17.982;2023-12-29T01:06:06;10.90;;;4.50;;
77012;SDS011;67260;53.130;17.982;2023-12-29T01:08:33;8.00;;;4.00;;
77012;SDS011;67260;53.130;17.982;2023-12-29T01:10:59;10.20;;;4.70;;
77012;SDS011;67260;53.130;17.982;2023-12-29T01:13:25;7.60;;;3.80;;
77012;SDS011;67260;53.130;17.982;2023-12-29T01:18:58;8.70;;;4.00;;
77012;SDS011;67260;53.130;17.982;2023-12-29T01:21:25;11.00;;;4.30;;
77012;SDS011;67260;53.130;17.982;2023-12-29T01:23:51;8.80;;;4.00;;
77012;SDS011;67260;53.130;17.982;2023-12-29T01:26:17;8.60;;;3.80;;
77012;SDS011;67260;53.130;17.982;2023-12-29T01:28:43;10.00;;;4.00;;
77012;SDS011;67260;53.130;17.982;2023-12-29T01:31:10;8.80;;;4.30;;
77012;SDS011;67260;53.130;17.982;2023-12-29T01:33:38;11.00;;;4.20;;
77012;SDS011;67260;53.130;17.982;2023-12-29T01:39:54;8.50;;;3.80;;
77012;SDS011;67260;53.130;17.982;2023-12-29T01:42:20;10.20;;;3.80;;
77012;SDS011;67260;53.130;17.982;2023-12-29T01:44:47;9.30;;;3.80;;
77012;SDS011;67260;53.130;17.982;2023-12-29T01:57:25;8.20;;;4.10;;
77012;SDS011;67260;53.130;17.982;2023-12-29T02:06:40;9.20;;;3.80;;
77012;SDS011;67260;53.130;17.982;2023-12-29T02:09:13;7.10;;;3.70;;
77012;SDS011;67260;53.130;17.982;2023-12-29T02:18:48;8.40;;;4.00;;
77012;SDS011;67260;53.130;17.982;2023-12-29T02:25:29;7.30;;;3.70;;
77012;SDS011;67260;53.130;17.982;2023-12-29T02:27:59;7.40;;;3.70;;
77012;SDS011;67260;53.130;17.982;2023-12-29T02:48:43;12.40;;;5.50;;
77012;SDS011;67260;53.130;17.982;2023-12-29T02:51:09;7.30;;;3.80;;
77012;SDS011;67260;53.130;17.982;2023-12-29T02:56:37;8.30;;;3.40;;
77012;SDS011;67260;53.130;17.982;2023-12-29T03:00:19;6.90;;;3.00;;
77012;SDS011;67260;53.130;17.982;2023-12-29T03:03:05;9.50;;;3.50;;
77012;SDS011;67260;53.130;17.982;2023-12-29T03:05:31;7.70;;;3.40;;
77012;SDS011;67260;53.130;17.982;2023-12-29T03:08:14;7.10;;;3.30;;
77012;SDS011;67260;53.130;17.982;2023-12-29T03:10:43;8.00;;;3.50;;
77012;SDS011;67260;53.130;17.982;2023-12-29T03:13:09;8.80;;;3.70;;
77012;SDS011;67260;53.130;17.982;2023-12-29T03:15:46;8.00;;;4.00;;
77012;SDS011;67260;53.130;17.982;2023-12-29T03:18:12;6.60;;;3.10;;
77012;SDS011;67260;53.130;17.982;2023-12-29T03:20:44;7.30;;;3.60;;
77012;SDS011;67260;53.130;17.982;2023-12-29T03:26:06;7.50;;;3.70;;
77012;SDS011;67260;53.130;17.982;2023-12-29T03:32:04;7.10;;;3.50;;
77012;SDS011;67260;53.130;17.982;2023-12-29T03:37:27;9.90;;;3.40;;
77012;SDS011;67260;53.130;17.982;2023-12-29T03:39:54;7.20;;;3.50;;
77012;SDS011;67260;53.130;17.982;2023-12-29T03:42:20;6.80;;;3.30;;
77012;SDS011;67260;53.130;17.982;2023-12-29T03:44:47;8.90;;;3.30;;
77012;SDS011;67260;53.130;17.982;2023-12-29T03:47:13;7.40;;;3.40;;
77012;SDS011;67260;53.130;17.982;2023-12-29T03:52:44;7.90;;;4.00;;
77012;SDS011;67260;53.130;17.982;2023-12-29T03:55:11;6.70;;;3.50;;
77012;SDS011;67260;53.130;17.982;2023-12-29T04:00:28;6.90;;;3.30;;
77012;SDS011;67260;53.130;17.982;2023-12-29T04:02:54;6.50;;;3.30;;
77012;SDS011;67260;53.130;17.982;2023-12-29T04:05:21;6.80;;;3.50;;
77012;SDS011;67260;53.130;17.982;2023-12-29T04:07:47;7.50;;;4.20;;
77012;SDS011;67260;53.130;17.982;2023-12-29T04:10:58;9.30;;;3.60;;
77012;SDS011;67260;53.130;17.982;2023-12-29T04:20:04;7.70;;;3.50;;
77012;SDS011;67260;53.130;17.982;2023-12-29T04:22:30;7.40;;;3.10;;
77012;SDS011;67260;53.130;17.982;2023-12-29T04:24:57;6.20;;;3.30;;
77012;SDS011;67260;53.130;17.982;2023-12-29T04:36:49;6.00;;;3.50;;
77012;SDS011;67260;53.130;17.982;2023-12-29T04:39:54;6.30;;;3.40;;
77012;SDS011;67260;53.130;17.982;2023-12-29T04:42:21;6.40;;;3.10;;
77012;SDS011;67260;53.130;17.982;2023-12-29T04:44:48;8.20;;;3.60;;
77012;SDS011;67260;53.130;17.982;2023-12-29T04:49:53;6.40;;;2.90;;
77012;SDS011;67260;53.130;17.982;2023-12-29T04:52:20;6.80;;;2.40;;
77012;SDS011;67260;53.130;17.982;2023-12-29T04:54:49;6.00;;;2.90;;
77012;SDS011;67260;53.130;17.982;2023-12-29T05:03:21;7.60;;;2.90;;
77012;SDS011;67260;53.130;17.982;2023-12-29T05:06:11;7.70;;;2.50;;
77012;SDS011;67260;53.130;17.982;2023-12-29T05:08:59;5.50;;;2.50;;
77012;SDS011;67260;53.130;17.982;2023-12-29T05:11:25;6.40;;;2.40;;
77012;SDS011;67260;53.130;17.982;2023-12-29T05:13:58;4.80;;;2.40;;
77012;SDS011;67260;53.130;17.982;2023-12-29T05:16:25;6.70;;;2.70;;
77012;SDS011;67260;53.130;17.982;2023-12-29T05:20:01;4.90;;;2.30;;
77012;SDS011;67260;53.130;17.982;2023-12-29T05:22:36;4.80;;;2.50;;
77012;SDS011;67260;53.130;17.982;2023-12-29T05:25:17;5.40;;;2.50;;
77012;SDS011;67260;53.130;17.982;2023-12-29T05:30:33;5.50;;;2.40;;
77012;SDS011;67260;53.130;17.982;2023-12-29T05:35:54;5.20;;;2.40;;
77012;SDS011;67260;53.130;17.982;2023-12-29T05:38:22;4.10;;;2.10;;
77012;SDS011;67260;53.130;17.982;2023-12-29T05:44:26;5.40;;;2.40;;
77012;SDS011;67260;53.130;17.982;2023-12-29T05:49:54;5.90;;;2.50;;
77012;SDS011;67260;53.130;17.982;2023-12-29T05:56:11;4.10;;;2.30;;
77012;SDS011;67260;53.130;17.982;2023-12-29T05:58:42;5.30;;;2.50;;
77012;SDS011;67260;53.130;17.982;2023-12-29T06:07:39;6.20;;;3.10;;
77012;SDS011;67260;53.130;17.982;2023-12-29T06:19:29;5.80;;;2.80;;
77012;SDS011;67260;53.130;17.982;2023-12-29T06:25:22;7.90;;;3.60;;
77012;SDS011;67260;53.130;17.982;2023-12-29T06:27:53;6.30;;;3.30;;
77012;SDS011;67260;53.130;17.982;2023-12-29T06:38:05;7.20;;;3.80;;
77012;SDS011;67260;53.130;17.982;2023-12-29T07:05:49;7.00;;;3.30;;
77012;SDS011;67260;53.130;17.982;2023-12-29T07:08:15;6.50;;;3.10;;
77012;SDS011;67260;53.130;17.982;2023-12-29T07:21:37;5.60;;;2.90;;
77012;SDS011;67260;53.130;17.982;2023-12-29T07:26:57;6.20;;;3.10;;
77012;SDS011;67260;53.130;17.982;2023-12-29T07:29:23;5.20;;;2.60;;
77012;SDS011;67260;53.130;17.982;2023-12-29T07:31:49;4.80;;;2.90;;
77012;SDS011;67260;53.130;17.982;2023-12-29T07:34:15;5.50;;;2.70;;
77012;SDS011;67260;53.130;17.982;2023-12-29T08:07:23;48.50;;;17.30;;
77012;SDS011;67260;53.130;17.982;2023-12-29T08:14:14;54.60;;;21.50;;
77012;SDS011;67260;53.130;17.982;2023-12-29T08:20:58;20.80;;;10.00;;
77012;SDS011;67260;53.130;17.982;2023-12-29T08:26:46;14.40;;;6.60;;
77012;SDS011;67260;53.130;17.982;2023-12-29T08:33:33;14.30;;;6.30;;
77012;SDS011;67260;53.130;17.982;2023-12-29T08:44:27;67.50;;;22.00;;
77012;SDS011;67260;53.130;17.982;2023-12-29T09:08:03;7.90;;;3.50;;
77012;SDS011;67260;53.130;17.982;2023-12-29T09:10:35;7.10;;;3.10;;
77012;SDS011;67260;53.130;17.982;2023-12-29T09:13:01;5.60;;;2.80;;
77012;SDS011;67260;53.130;17.982;2023-12-29T09:15:27;5.10;;;2.70;;
77012;SDS011;67260;53.130;17.982;2023-12-29T09:30:38;5.90;;;2.70;;
77012;SDS011;67260;53.130;17.982;2023-12-29T09:33:05;5.70;;;2.90;;
77012;SDS011;67260;53.130;17.982;2023-12-29T09:35:32;5.90;;;2.80;;
77012;SDS011;67260;53.130;17.982;2023-12-29T09:37:57;16.60;;;6.50;;
77012;SDS011;67260;53.130;17.982;2023-12-29T09:40:25;10.10;;;4.70;;
77012;SDS011;67260;53.130;17.982;2023-12-29T09:43:20;10.40;;;4.40;;
77012;SDS011;67260;53.130;17.982;2023-12-29T09:45:46;9.10;;;5.00;;
77012;SDS011;67260;53.130;17.982;2023-12-29T09:48:15;12.80;;;6.00;;
77012;SDS011;67260;53.130;17.982;2023-12-29T09:50:45;8.10;;;3.80;;
77012;SDS011;67260;53.130;17.982;2023-12-29T09:53:11;14.50;;;6.40;;
77012;SDS011;67260;53.130;17.982;2023-12-29T09:55:40;12.20;;;5.00;;
77012;SDS011;67260;53.130;17.982;2023-12-29T10:15:42;20.60;;;10.50;;
77012;SDS011;67260;53.130;17.982;2023-12-29T10:26:12;9.50;;;5.40;;
77012;SDS011;67260;53.130;17.982;2023-12-29T10:56:20;12.60;;;6.00;;
77012;SDS011;67260;53.130;17.982;2023-12-29T10:58:46;24.40;;;10.70;;
77012;SDS011;67260;53.130;17.982;2023-12-29T11:08:57;7.60;;;3.80;;
77012;SDS011;67260;53.130;17.982;2023-12-29T11:15:08;9.40;;;4.20;;
77012;SDS011;67260;53.130;17.982;2023-12-29T11:17:55;9.30;;;4.00;;
77012;SDS011;67260;53.130;17.982;2023-12-29T11:20:22;9.80;;;4.30;;
77012;SDS011;67260;53.130;17.982;2023-12-29T11:23:17;9.00;;;4.60;;
77012;SDS011;67260;53.130;17.982;2023-12-29T11:25:44;7.80;;;3.70;;
77012;SDS011;67260;53.130;17.982;2023-12-29T11:28:24;19.70;;;12.30;;
77012;SDS011;67260;53.130;17.982;2023-12-29T12:01:59;7.20;;;3.00;;
77012;SDS011;67260;53.130;17.982;2023-12-29T12:18:39;9.10;;;4.20;;
77012;SDS011;67260;53.130;17.982;2023-12-29T12:21:05;9.50;;;3.30;;
77012;SDS011;67260;53.130;17.982;2023-12-29T12:23:41;6.10;;;2.90;;
77012;SDS011;67260;53.130;17.982;2023-12-29T12:26:07;5.00;;;2.10;;
77012;SDS011;67260;53.130;17.982;2023-12-29T12:28:34;6.70;;;3.10;;
77012;SDS011;67260;53.130;17.982;2023-12-29T12:31:04;6.40;;;3.50;;
77012;SDS011;67260;53.130;17.982;2023-12-29T12:33:34;14.60;;;6.00;;
77012;SDS011;67260;53.130;17.982;2023-12-29T12:36:00;24.90;;;10.30;;
77012;SDS011;67260;53.130;17.982;2023-12-29T12:38:26;12.90;;;5.60;;
77012;SDS011;67260;53.130;17.982;2023-12-29T12:41:13;18.70;;;9.50;;
77012;SDS011;67260;53.130;17.982;2023-12-29T12:43:39;7.30;;;3.10;;
77012;SDS011;67260;53.130;17.982;2023-12-29T12:48:58;8.80;;;3.90;;
77012;SDS011;67260;53.130;17.982;2023-12-29T12:51:25;7.70;;;3.70;;
77012;SDS011;67260;53.130;17.982;2023-12-29T13:47:37;8.60;;;3.90;;
77012;SDS011;67260;53.130;17.982;2023-12-29T13:50:05;13.00;;;5.00;;
77012;SDS011;67260;53.130;17.982;2023-12-29T15:46:20;12.60;;;5.00;;
77012;SDS011;67260;53.130;17.982;2023-12-29T15:49:36;13.10;;;5.20;;
77012;SDS011;67260;53.130;17.982;2023-12-29T15:52:03;11.90;;;4.30;;
77012;SDS011;67260;53.130;17.982;2023-12-29T16:13:33;46.90;;;21.30;;
77012;SDS011;67260;53.130;17.982;2023-12-29T16:17:23;28.80;;;13.80;;
77012;SDS011;67260;53.130;17.982;2023-12-29T16:23:46;12.10;;;6.40;;
77012;SDS011;67260;53.130;17.982;2023-12-29T16:26:12;14.60;;;5.60;;
77012;SDS011;67260;53.130;17.982;2023-12-29T16:28:44;12.30;;;5.10;;
77012;SDS011;67260;53.130;17.982;2023-12-29T16:31:11;14.30;;;6.00;;
77012;SDS011;67260;53.130;17.982;2023-12-29T16:33:53;12.60;;;5.30;;
77012;SDS011;67260;53.130;17.982;2023-12-29T17:15:35;12.40;;;4.90;;
77012;SDS011;67260;53.130;17.982;2023-12-29T17:36:30;12.10;;;5.70;;
77012;SDS011;67260;53.130;17.982;2023-12-29T17:55:56;13.70;;;5.20;;
77012;SDS011;67260;53.130;17.982;2023-12-29T18:03:27;16.50;;;6.90;;
77012;SDS011;67260;53.130;17.982;2023-12-29T18:24:46;16.70;;;7.90;;
77012;SDS011;67260;53.130;17.982;2023-12-29T18:27:15;13.60;;;6.90;;
77012;SDS011;67260;53.130;17.982;2023-12-29T18:30:37;14.90;;;7.40;;
77012;SDS011;67260;53.130;17.982;2023-12-29T18:39:32;20.00;;;10.10;;
77012;SDS011;67260;53.130;17.982;2023-12-29T18:42:04;20.70;;;9.90;;
77012;SDS011;67260;53.130;17.982;2023-12-29T18:49:18;24.00;;;11.40;;
77012;SDS011;67260;53.130;17.982;2023-12-29T18:51:47;22.90;;;11.40;;
77012;SDS011;67260;53.130;17.982;2023-12-29T18:54:18;23.60;;;12.70;;
77012;SDS011;67260;53.130;17.982;2023-12-29T19:03:16;30.00;;;15.10;;
77012;SDS011;67260;53.130;17.982;2023-12-29T19:05:47;31.90;;;14.10;;
77012;SDS011;67260;53.130;17.982;2023-12-29T19:08:16;29.70;;;13.80;;
77012;SDS011;67260;53.130;17.982;2023-12-29T19:10:46;29.70;;;14.10;;
77012;SDS011;67260;53.130;17.982;2023-12-29T19:39:58;24.60;;;11.50;;
77012;SDS011;67260;53.130;17.982;2023-12-29T19:42:26;25.00;;;13.40;;
77012;SDS011;67260;53.130;17.982;2023-12-29T19:44:53;28.80;;;14.30;;
77012;SDS011;67260;53.130;17.982;2023-12-29T19:47:25;29.80;;;15.30;;
77012;SDS011;67260;53.130;17.982;2023-12-29T19:49:55;28.20;;;14.30;;
77012;SDS011;67260;53.130;17.982;2023-12-29T19:52:21;24.00;;;12.60;;
77012;SDS011;67260;53.130;17.982;2023-12-29T19:54:50;30.20;;;13.40;;
77012;SDS011;67260;53.130;17.982;2023-12-29T19:57:17;25.50;;;12.70;;
77012;SDS011;67260;53.130;17.982;2023-12-29T19:59:43;28.40;;;12.60;;
77012;SDS011;67260;53.130;17.982;2023-12-29T20:09:34;16.80;;;9.90;;
77012;SDS011;67260;53.130;17.982;2023-12-29T20:12:00;16.70;;;8.70;;
77012;SDS011;67260;53.130;17.982;2023-12-29T20:14:26;17.10;;;8.80;;
77012;SDS011;67260;53.130;17.982;2023-12-29T20:16:52;13.90;;;8.00;;
77012;SDS011;67260;53.130;17.982;2023-12-29T20:19:19;14.00;;;7.50;;
77012;SDS011;67260;53.130;17.982;2023-12-29T20:21:46;15.90;;;7.70;;
77012;SDS011;67260;53.130;17.982;2023-12-29T20:24:15;15.00;;;6.90;;
77012;SDS011;67260;53.130;17.982;2023-12-29T20:26:41;15.40;;;6.60;;
77012;SDS011;67260;53.130;17.982;2023-12-29T20:29:08;13.10;;;6.70;;
77012;SDS011;67260;53.130;17.982;2023-12-29T20:31:34;11.30;;;6.40;;
77012;SDS011;67260;53.130;17.982;2023-12-29T20:34:00;12.60;;;5.70;;
77012;SDS011;67260;53.130;17.982;2023-12-29T20:36:27;11.00;;;5.90;;
77012;SDS011;67260;53.130;17.982;2023-12-29T20:38:53;9.00;;;4.90;;
77012;SDS011;67260;53.130;17.982;2023-12-29T20:41:20;9.80;;;4.60;;
77012;SDS011;67260;53.130;17.982;2023-12-29T20:44:02;9.90;;;4.80;;
77012;SDS011;67260;53.130;17.982;2023-12-29T20:50:53;8.60;;;4.20;;
77012;SDS011;67260;53.130;17.982;2023-12-29T20:53:20;8.90;;;4.60;;
77012;SDS011;67260;53.130;17.982;2023-12-29T20:58:44;10.70;;;5.40;;
77012;SDS011;67260;53.130;17.982;2023-12-29T21:01:10;8.80;;;4.40;;
77012;SDS011;67260;53.130;17.982;2023-12-29T21:03:37;8.70;;;4.80;;
77012;SDS011;67260;53.130;17.982;2023-12-29T21:06:06;13.20;;;6.10;;
77012;SDS011;67260;53.130;17.982;2023-12-29T21:08:33;12.80;;;5.90;;
77012;SDS011;67260;53.130;17.982;2023-12-29T21:10:59;11.40;;;6.00;;
77012;SDS011;67260;53.130;17.982;2023-12-29T21:13:27;9.90;;;5.10;;
77012;SDS011;67260;53.130;17.982;2023-12-29T21:15:53;10.40;;;5.70;;
77012;SDS011;67260;53.130;17.982;2023-12-29T21:18:20;10.20;;;4.30;;
77012;SDS011;67260;53.130;17.982;2023-12-29T21:20:49;10.30;;;4.70;;
77012;SDS011;67260;53.130;17.982;2023-12-29T21:23:18;10.70;;;4.70;;
77012;SDS011;67260;53.130;17.982;2023-12-29T21:25:44;10.80;;;5.20;;
77012;SDS011;67260;53.130;17.982;2023-12-29T21:28:16;11.50;;;4.80;;
77012;SDS011;67260;53.130;17.982;2023-12-29T21:30:42;9.00;;;4.60;;
77012;SDS011;67260;53.130;17.982;2023-12-29T21:33:08;11.40;;;4.80;;
77012;SDS011;67260;53.130;17.982;2023-12-29T21:35:34;11.50;;;5.40;;
77012;SDS011;67260;53.130;17.982;2023-12-29T21:38:00;11.70;;;5.70;;
77012;SDS011;67260;53.130;17.982;2023-12-29T21:40:28;12.70;;;5.80;;
77012;SDS011;67260;53.130;17.982;2023-12-29T21:42:54;12.50;;;6.00;;
77012;SDS011;67260;53.130;17.982;2023-12-29T21:45:28;10.40;;;5.60;;
77012;SDS011;67260;53.130;17.982;2023-12-29T21:48:32;10.90;;;5.20;;
77012;SDS011;67260;53.130;17.982;2023-12-29T21:51:05;11.40;;;5.10;;
77012;SDS011;67260;53.130;17.982;2023-12-29T21:53:35;9.80;;;4.90;;
77012;SDS011;67260;53.130;17.982;2023-12-29T21:58:56;7.80;;;4.10;;
77012;SDS011;67260;53.130;17.982;2023-12-29T22:01:32;8.60;;;4.50;;
77012;SDS011;67260;53.130;17.982;2023-12-29T22:04:03;8.80;;;4.20;;
77012;SDS011;67260;53.130;17.982;2023-12-29T22:06:32;8.70;;;3.40;;
77012;SDS011;67260;53.130;17.982;2023-12-29T22:11:25;9.20;;;3.70;;
77012;SDS011;67260;53.130;17.982;2023-12-29T22:13:53;9.70;;;3.90;;
77012;SDS011;67260;53.130;17.982;2023-12-29T22:16:19;7.20;;;3.10;;
77012;SDS011;67260;53.130;17.982;2023-12-29T22:18:48;9.20;;;4.20;;
77012;SDS011;67260;53.130;17.982;2023-12-29T22:21:14;6.60;;;2.90;;
77012;SDS011;67260;53.130;17.982;2023-12-29T22:26:26;8.20;;;3.70;;
77012;SDS011;67260;53.130;17.982;2023-12-29T22:28:52;7.70;;;3.40;;
77012;SDS011;67260;53.130;17.982;2023-12-29T22:31:21;9.10;;;3.50;;
77012;SDS011;67260;53.130;17.982;2023-12-29T22:33:48;11.40;;;4.50;;
77012;SDS011;67260;53.130;17.982;2023-12-29T22:36:16;6.40;;;3.60;;
77012;SDS011;67260;53.130;17.982;2023-12-29T22:38:49;8.10;;;3.20;;
77012;SDS011;67260;53.130;17.982;2023-12-29T22:41:15;8.80;;;3.00;;
77012;SDS011;67260;53.130;17.982;2023-12-29T22:44:21;8.60;;;2.90;;
77012;SDS011;67260;53.130;17.982;2023-12-29T22:49:16;6.80;;;2.70;;
77012;SDS011;67260;53.130;17.982;2023-12-29T22:51:44;7.20;;;2.30;;
77012;SDS011;67260;53.130;17.982;2023-12-29T22:54:29;6.50;;;2.20;;
77012;SDS011;67260;53.130;17.982;2023-12-29T22:59:21;5.30;;;1.90;;
77012;SDS011;67260;53.130;17.982;2023-12-29T23:01:47;4.80;;;2.00;;
77012;SDS011;67260;53.130;17.982;2023-12-29T23:04:16;4.50;;;2.10;;
77012;SDS011;67260;53.130;17.982;2023-12-29T23:06:42;5.00;;;2.20;;
77012;SDS011;67260;53.130;17.982;2023-12-29T23:09:08;5.20;;;2.20;;
77012;SDS011;67260;53.130;17.982;2023-12-29T23:14:34;4.90;;;2.00;;
77012;SDS011;67260;53.130;17.982;2023-12-29T23:17:07;4.30;;;1.80;;
77012;SDS011;67260;53.130;17.982;2023-12-29T23:19:36;4.90;;;1.90;;
77012;SDS011;67260;53.130;17.982;2023-12-29T23:22:02;4.00;;;1.50;;
77012;SDS011;67260;53.130;17.982;2023-12-29T23:29:57;3.50;;;1.60;;
77012;SDS011;67260;53.130;17.982;2023-12-29T23:32:23;4.00;;;1.70;;
77012;SDS011;67260;53.130;17.982;2023-12-29T23:34:49;4.50;;;1.80;;
77012;SDS011;67260;53.130;17.982;2023-12-29T23:37:16;3.90;;;1.80;;
77012;SDS011;67260;53.130;17.982;2023-12-29T23:39:43;4.70;;;1.80;;
77012;SDS011;67260;53.130;17.982;2023-12-29T23:42:09;5.10;;;1.30;;
77012;SDS011;67260;53.130;17.982;2023-12-29T23:44:35;4.00;;;1.60;;
77012;SDS011;67260;53.130;17.982;2023-12-29T23:47:06;3.50;;;1.40;;
77012;SDS011;67260;53.130;17.982;2023-12-29T23:52:03;5.60;;;1.60;;
77012;SDS011;67260;53.130;17.982;2023-12-29T23:54:32;5.00;;;1.70;;
77012;SDS011;67260;53.130;17.982;2023-12-29T23:57:15;5.10;;;1.90;;
